Big Pine Key, FL (33043)

6:09 PM EST on November 24, 2014 (GMT -0500)
RAWS NATIONAL KEY DEER NWR FL US | Change Station
CLOSE
Current Station
Personal Weather Station
Location: Summerland Key, FL
Elevation: 9 ft
Nearby Weather Stations

Elev 9 ft 24.72 °N, 81.39 °W | Updated 1 hour ago

Clear
Clear
83 °F
Feels Like 90 °F
N
6
Wind Variable Wind from SE
Gusts 11.0 mph

Today
High -- | Low -- °F
--% Chance of Precip.
Yesterday
High -- | Low -- °F
Precip. -- in
6:47 AM 5:36 PM
Waxing Crescent, 7% visible
Pressure 29.96 in
Visibility 10.0 miles
Clouds Scattered Clouds 4500 ft
Mostly Cloudy 12000 ft
Heat Index 90 °F
Dew Point 75 °F
Humidity 76%
Rainfall 0.00 in
Snow Depth Not available.
UV 0 out of 12
Pollen 3.30 out of 12
Air Quality Not available.
Flu Activity Not available.
METAR KNQX 242253Z 13008KT 10SM SCT045 BKN120 26/25 A2996 RMK AO2 SLP145 T02560250 $

More Conditions Fewer Conditions

Pressure 29.96 in
Visibility 10.0 miles
Clouds Scattered Clouds 4500 ft
Mostly Cloudy 12000 ft
Heat Index 90 °F
Dew Point 75 °F
Humidity 76%
Rainfall 0.00 in
Snow Depth Not available.
UV 0 out of 12
Pollen 3.30 out of 12
Air Quality Not available.
Flu Activity Not available.
METAR KNQX 242253Z 13008KT 10SM SCT045 BKN120 26/25 A2996 RMK AO2 SLP145 T02560250 $

More Conditions Fewer Conditions

10-Day Weather Forecast

Almanac

Astronomy

Nov. 24, 2014 Rise Set
Actual Time
Civil Twilight
Nautical Twilight
Astronomical Twilight
Moon
Length of Visible Light
Length of Day
Tomorrow will be .
, % of the Moon is Illuminated

Today's Extremes

State Highs State Lows

Community

WunderPhotos

Upload Photos

1,773,434 photos uploaded!

WunderBlogs® & News

Nearby

Air Quality

  Air Quality AQ Index Pollutant
Not available.

Snow Depth

Station Depth Elevation

Earthquake Activity

City Distance Mag. Time & Date
Minimum magnitude displayed is 2.5.

Coastal Water Temperatures

Place Temperature

Nearby Weather Stations